createdAt,value
2018-02-08T00:00:48.153Z,1012.8
2018-02-08T00:01:50.575Z,1012.8
2018-02-08T00:02:53.000Z,1012.7
2018-02-08T00:03:55.683Z,1012.8
2018-02-08T00:04:58.095Z,1012.8
2018-02-08T00:06:00.514Z,1012.8
2018-02-08T00:07:03.209Z,1012.8
2018-02-08T00:08:05.622Z,1012.8
2018-02-08T00:09:08.040Z,1012.7
2018-02-08T00:10:10.457Z,1012.8
2018-02-08T00:11:12.898Z,1012.8
2018-02-08T00:12:15.294Z,1012.7
2018-02-08T00:13:17.701Z,1012.8
2018-02-08T00:14:20.120Z,1012.8
2018-02-08T00:15:22.536Z,1012.7
2018-02-08T00:16:24.952Z,1012.8
2018-02-08T00:17:27.370Z,1012.8
2018-02-08T00:18:29.794Z,1012.8
2018-02-08T00:19:32.210Z,1012.8
2018-02-08T00:20:34.644Z,1012.7
2018-02-08T00:21:37.064Z,1012.7
2018-02-08T00:22:39.480Z,1012.7
2018-02-08T00:23:41.892Z,1012.7
2018-02-08T00:24:44.309Z,1012.7
2018-02-08T00:25:46.724Z,1012.8
2018-02-08T00:26:49.147Z,1012.8
2018-02-08T00:27:51.551Z,1012.8
2018-02-08T00:28:53.974Z,1012.8
2018-02-08T00:29:57.266Z,1012.8
2018-02-08T00:30:59.675Z,1012.8
2018-02-08T00:32:02.390Z,1012.8
2018-02-08T00:33:04.806Z,1012.8
2018-02-08T00:34:07.216Z,1012.8
2018-02-08T00:35:09.641Z,1012.8
2018-02-08T00:36:12.054Z,1012.8
2018-02-08T00:37:14.473Z,1012.8
2018-02-08T00:38:16.889Z,1012.8
2018-02-08T00:39:19.313Z,1012.8
2018-02-08T00:40:21.730Z,1012.8
2018-02-08T00:41:24.147Z,1012.8
2018-02-08T00:42:26.562Z,1012.8
2018-02-08T00:43:28.978Z,1012.8
2018-02-08T00:44:31.381Z,1012.8
2018-02-08T00:45:33.790Z,1012.8
2018-02-08T00:46:36.210Z,1012.8
2018-02-08T00:47:38.629Z,1012.8
2018-02-08T00:48:41.043Z,1012.8
2018-02-08T00:49:43.465Z,1012.7
2018-02-08T00:50:45.880Z,1012.7
2018-02-08T00:51:48.308Z,1012.7
2018-02-08T00:52:51.014Z,1012.7
2018-02-08T00:53:53.410Z,1012.7
2018-02-08T00:54:55.826Z,1012.7
2018-02-08T00:55:58.246Z,1012.7
2018-02-08T00:57:00.943Z,1012.7
2018-02-08T00:58:03.352Z,1012.7
2018-02-08T00:59:05.762Z,1012.7
2018-02-08T01:00:08.178Z,1012.7
2018-02-08T01:01:10.883Z,1012.7
2018-02-08T01:02:13.303Z,1012.7
2018-02-08T01:03:15.707Z,1012.7
2018-02-08T01:04:18.134Z,1012.7
2018-02-08T01:05:20.839Z,1012.7
2018-02-08T01:06:23.261Z,1012.7
2018-02-08T01:07:25.682Z,1012.7
2018-02-08T01:08:28.088Z,1012.7
2018-02-08T01:09:30.502Z,1012.7
2018-02-08T01:10:32.923Z,1012.7
2018-02-08T01:11:35.335Z,1012.7
2018-02-08T01:12:38.037Z,1012.6
2018-02-08T01:13:40.458Z,1012.7
2018-02-08T01:14:42.877Z,1012.6
2018-02-08T01:15:45.297Z,1012.6
2018-02-08T01:16:48.006Z,1012.6
2018-02-08T01:17:50.436Z,1012.6
2018-02-08T01:18:52.847Z,1012.6
2018-02-08T01:19:55.571Z,1012.5
2018-02-08T01:20:57.985Z,1012.5
2018-02-08T01:22:00.682Z,1012.6
2018-02-08T01:23:03.101Z,1012.6
2018-02-08T01:24:05.515Z,1012.6
2018-02-08T01:25:07.924Z,1012.6
2018-02-08T01:26:10.347Z,1012.6
2018-02-08T01:27:12.756Z,1012.6
2018-02-08T01:28:15.449Z,1012.7
2018-02-08T01:29:17.867Z,1012.7
2018-02-08T01:30:20.289Z,1012.7
2018-02-08T01:31:22.703Z,1012.7
2018-02-08T01:32:25.118Z,1012.7
2018-02-08T01:33:27.533Z,1012.7
2018-02-08T01:34:29.955Z,1012.8
2018-02-08T01:35:32.366Z,1012.7
2018-02-08T01:36:34.789Z,1012.7
2018-02-08T01:37:37.194Z,1012.7
2018-02-08T01:38:39.614Z,1012.7
2018-02-08T01:39:42.034Z,1012.7
2018-02-08T01:40:44.450Z,1012.7
2018-02-08T01:41:46.879Z,1012.7
2018-02-08T01:42:49.578Z,1012.7
2018-02-08T01:43:51.985Z,1012.7
2018-02-08T01:44:54.412Z,1012.7
2018-02-08T01:45:56.830Z,1012.6
2018-02-08T01:46:59.244Z,1012.7
2018-02-08T01:48:01.946Z,1012.7
2018-02-08T01:49:04.355Z,1012.7
2018-02-08T01:50:06.762Z,1012.7
2018-02-08T01:51:09.192Z,1012.8
2018-02-08T01:52:11.605Z,1012.7
2018-02-08T01:53:14.293Z,1012.7
2018-02-08T01:54:16.715Z,1012.8
2018-02-08T01:55:19.426Z,1012.8
2018-02-08T01:56:21.849Z,1012.8
2018-02-08T01:57:24.261Z,1012.8
2018-02-08T01:58:26.967Z,1012.8
2018-02-08T01:59:29.671Z,1012.7
2018-02-08T02:00:32.093Z,1012.7
2018-02-08T02:01:34.519Z,1012.7
2018-02-08T02:02:36.918Z,1012.7
2018-02-08T02:03:39.339Z,1012.7
2018-02-08T02:04:42.309Z,1012.6
2018-02-08T02:05:44.735Z,1012.7
2018-02-08T02:06:47.144Z,1012.6
2018-02-08T02:07:49.848Z,1012.6
2018-02-08T02:08:52.258Z,1012.5
2018-02-08T02:09:54.685Z,1012.6
2018-02-08T02:10:57.395Z,1012.6
2018-02-08T02:11:59.807Z,1012.6
2018-02-08T02:13:02.229Z,1012.5
2018-02-08T02:14:04.648Z,1012.6
2018-02-08T02:15:07.054Z,1012.5
2018-02-08T02:16:09.478Z,1012.6
2018-02-08T02:17:11.894Z,1012.6
2018-02-08T02:18:14.297Z,1012.6
2018-02-08T02:19:16.714Z,1012.6
2018-02-08T02:20:19.128Z,1012.6
2018-02-08T02:21:21.544Z,1012.6
2018-02-08T02:22:23.958Z,1012.6
2018-02-08T02:23:26.374Z,1012.6
2018-02-08T02:24:28.788Z,1012.6
2018-02-08T02:25:31.212Z,1012.6
2018-02-08T02:26:34.181Z,1012.6
2018-02-08T02:27:36.895Z,1012.6
2018-02-08T02:28:39.322Z,1012.5
2018-02-08T02:29:41.737Z,1012.5
2018-02-08T02:30:44.158Z,1012.5
2018-02-08T02:31:46.568Z,1012.5
2018-02-08T02:32:48.976Z,1012.5
2018-02-08T02:33:51.402Z,1012.5
2018-02-08T02:34:53.824Z,1012.5
2018-02-08T02:35:56.215Z,1012.5
2018-02-08T02:36:58.639Z,1012.5
2018-02-08T02:38:01.070Z,1012.5
2018-02-08T02:39:03.481Z,1012.5
2018-02-08T02:40:05.904Z,1012.5
2018-02-08T02:41:08.312Z,1012.5
2018-02-08T02:42:10.732Z,1012.5
2018-02-08T02:43:13.155Z,1012.5
2018-02-08T02:44:15.561Z,1012.4
2018-02-08T02:45:17.977Z,1012.4
2018-02-08T02:46:20.959Z,1012.5
2018-02-08T02:47:23.366Z,1012.4
2018-02-08T02:48:25.796Z,1012.5
2018-02-08T02:49:28.205Z,1012.4
2018-02-08T02:50:30.626Z,1012.4
2018-02-08T02:51:33.044Z,1012.4
2018-02-08T02:52:35.465Z,1012.4
2018-02-08T02:53:37.879Z,1012.4
2018-02-08T02:54:40.297Z,1012.4
2018-02-08T02:55:43.284Z,1012.4
2018-02-08T02:56:45.712Z,1012.4
2018-02-08T02:57:48.415Z,1012.4
2018-02-08T02:58:51.124Z,1012.5
2018-02-08T02:59:53.529Z,1012.4
2018-02-08T03:00:55.940Z,1012.5
2018-02-08T03:01:58.360Z,1012.5
2018-02-08T03:03:00.773Z,1012.4
2018-02-08T03:04:03.467Z,1012.5
2018-02-08T03:05:05.885Z,1012.5
2018-02-08T03:06:08.303Z,1012.5
2018-02-08T03:07:10.733Z,1012.4
2018-02-08T03:08:13.440Z,1012.5
2018-02-08T03:09:15.840Z,1012.4
2018-02-08T03:10:18.258Z,1012.5
2018-02-08T03:11:20.672Z,1012.5
2018-02-08T03:12:23.083Z,1012.4
2018-02-08T03:13:25.486Z,1012.5
2018-02-08T03:14:27.921Z,1012.4
2018-02-08T03:15:30.338Z,1012.4
2018-02-08T03:16:32.743Z,1012.5
2018-02-08T03:17:35.475Z,1012.5
2018-02-08T03:18:37.889Z,1012.5
2018-02-08T03:19:40.311Z,1012.5
2018-02-08T03:20:42.741Z,1012.5
2018-02-08T03:21:45.717Z,1012.5
2018-02-08T03:22:48.134Z,1012.5
2018-02-08T03:23:50.556Z,1012.6
2018-02-08T03:24:52.971Z,1012.6
2018-02-08T03:25:55.383Z,1012.6
2018-02-08T03:26:57.798Z,1012.5
2018-02-08T03:28:00.501Z,1012.5
2018-02-08T03:29:02.925Z,1012.5
2018-02-08T03:30:05.334Z,1012.5
2018-02-08T03:31:08.035Z,1012.5
2018-02-08T03:32:10.455Z,1012.6
2018-02-08T03:33:12.862Z,1012.6
2018-02-08T03:34:15.272Z,1012.6
2018-02-08T03:35:17.697Z,1012.6
2018-02-08T03:36:20.104Z,1012.6
2018-02-08T03:37:22.527Z,1012.6
2018-02-08T03:38:25.225Z,1012.6
2018-02-08T03:39:27.644Z,1012.6
2018-02-08T03:40:30.048Z,1012.6
2018-02-08T03:41:32.460Z,1012.6
2018-02-08T03:42:34.881Z,1012.7
2018-02-08T03:43:37.290Z,1012.6
2018-02-08T03:44:39.712Z,1012.7
2018-02-08T03:45:42.406Z,1012.7
2018-02-08T03:46:44.819Z,1012.7
2018-02-08T03:47:47.314Z,1012.7
2018-02-08T03:48:50.042Z,1012.7
2018-02-08T03:49:52.453Z,1012.7
2018-02-08T03:50:54.874Z,1012.7
2018-02-08T03:51:57.284Z,1012.7
2018-02-08T03:52:59.702Z,1012.7
2018-02-08T03:54:02.402Z,1012.7
2018-02-08T03:55:04.812Z,1012.7
2018-02-08T03:56:07.216Z,1012.7
2018-02-08T03:57:09.638Z,1012.7
2018-02-08T03:58:12.053Z,1012.7
2018-02-08T03:59:14.463Z,1012.8
2018-02-08T04:00:16.881Z,1012.8
2018-02-08T04:01:19.301Z,1012.8
2018-02-08T04:02:21.719Z,1012.8
2018-02-08T04:03:24.133Z,1012.8
2018-02-08T04:04:26.550Z,1012.8
2018-02-08T04:05:28.960Z,1012.8
2018-02-08T04:06:31.387Z,1012.8
2018-02-08T04:07:33.796Z,1012.8
2018-02-08T04:08:36.210Z,1012.8
2018-02-08T04:09:38.628Z,1012.8
2018-02-08T04:10:41.043Z,1012.8
2018-02-08T04:11:43.455Z,1012.8
2018-02-08T04:12:45.871Z,1012.8
2018-02-08T04:13:48.292Z,1012.9
2018-02-08T04:14:50.982Z,1012.9
2018-02-08T04:15:53.398Z,1012.9
2018-02-08T04:16:55.814Z,1013
2018-02-08T04:17:58.228Z,1012.9
2018-02-08T04:19:00.646Z,1013
2018-02-08T04:20:03.336Z,1012.9
2018-02-08T04:21:05.752Z,1012.9
2018-02-08T04:22:08.162Z,1012.9
2018-02-08T04:23:10.581Z,1012.9
2018-02-08T04:24:12.984Z,1012.9
2018-02-08T04:25:15.406Z,1013
2018-02-08T04:26:17.822Z,1012.9
2018-02-08T04:27:20.243Z,1013
2018-02-08T04:28:22.659Z,1013
2018-02-08T04:29:25.081Z,1013
2018-02-08T04:30:27.491Z,1013
2018-02-08T04:31:30.207Z,1013
2018-02-08T04:32:32.886Z,1013
2018-02-08T04:33:35.303Z,1013
2018-02-08T04:34:37.720Z,1013
2018-02-08T04:35:40.137Z,1013
2018-02-08T04:36:42.545Z,1013
2018-02-08T04:37:44.956Z,1013
2018-02-08T04:38:47.367Z,1013
2018-02-08T04:39:49.790Z,1013
2018-02-08T04:40:52.203Z,1013
2018-02-08T04:41:54.619Z,1013
2018-02-08T04:42:57.076Z,1013.1
2018-02-08T04:43:59.740Z,1013
2018-02-08T04:45:02.147Z,1013
2018-02-08T04:46:04.558Z,1013
2018-02-08T04:47:06.958Z,1013
2018-02-08T04:48:09.369Z,1013
2018-02-08T04:49:11.784Z,1013
2018-02-08T04:50:14.200Z,1013
2018-02-08T04:51:16.618Z,1013
2018-02-08T04:52:19.028Z,1013.1
2018-02-08T04:53:21.438Z,1013.1
2018-02-08T04:54:23.863Z,1013.1
2018-02-08T04:55:26.272Z,1013.1
2018-02-08T04:56:28.684Z,1013.1
2018-02-08T04:57:31.099Z,1013
2018-02-08T04:58:33.510Z,1013
2018-02-08T04:59:35.920Z,1013.1
2018-02-08T05:00:38.341Z,1013.1
2018-02-08T05:01:40.753Z,1013.1
2018-02-08T05:02:43.170Z,1013.1
2018-02-08T05:03:45.577Z,1013.1
2018-02-08T05:04:47.992Z,1013.1
2018-02-08T05:05:50.679Z,1013.1
2018-02-08T05:06:53.096Z,1013.1
2018-02-08T05:07:55.511Z,1013.1
2018-02-08T05:08:57.982Z,1013.1
2018-02-08T05:10:00.358Z,1013.1
2018-02-08T05:11:02.767Z,1013.2
2018-02-08T05:12:05.182Z,1013.2
2018-02-08T05:13:07.591Z,1013.2
2018-02-08T05:14:09.994Z,1013.2
2018-02-08T05:15:12.413Z,1013.2
2018-02-08T05:16:14.825Z,1013.2
2018-02-08T05:17:17.522Z,1013.2
2018-02-08T05:18:20.217Z,1013.2
2018-02-08T05:19:22.637Z,1013.2
2018-02-08T05:20:25.353Z,1013.2
2018-02-08T05:21:27.763Z,1013.2
2018-02-08T05:22:30.160Z,1013.2
2018-02-08T05:23:32.579Z,1013.2
2018-02-08T05:24:34.993Z,1013.2
2018-02-08T05:25:37.700Z,1013.2
2018-02-08T05:26:40.121Z,1013.2
2018-02-08T05:27:42.515Z,1013.2
2018-02-08T05:28:44.930Z,1013.2
2018-02-08T05:29:47.354Z,1013.3
2018-02-08T05:30:50.049Z,1013.3
2018-02-08T05:31:52.462Z,1013.3
2018-02-08T05:32:54.882Z,1013.3
2018-02-08T05:33:57.282Z,1013.3
2018-02-08T05:34:59.707Z,1013.3
2018-02-08T05:36:02.118Z,1013.4
2018-02-08T05:37:04.522Z,1013.3
2018-02-08T05:38:06.937Z,1013.3
2018-02-08T05:39:09.669Z,1013.3
2018-02-08T05:40:12.072Z,1013.3
2018-02-08T05:41:14.483Z,1013.3
2018-02-08T05:42:16.904Z,1013.4
2018-02-08T05:43:19.590Z,1013.4
2018-02-08T05:44:22.292Z,1013.3
2018-02-08T05:45:24.710Z,1013.3
2018-02-08T05:46:27.675Z,1013.3
2018-02-08T05:47:30.374Z,1013.3
2018-02-08T05:48:32.805Z,1013.3
2018-02-08T05:49:35.208Z,1013.3
2018-02-08T05:50:37.623Z,1013.4
2018-02-08T05:51:40.035Z,1013.4
2018-02-08T05:52:42.442Z,1013.3
2018-02-08T05:53:44.874Z,1013.4
2018-02-08T05:54:47.286Z,1013.4
2018-02-08T05:55:49.976Z,1013.4
2018-02-08T05:56:52.397Z,1013.4
2018-02-08T05:57:54.797Z,1013.4
2018-02-08T05:58:57.207Z,1013.4
2018-02-08T05:59:59.901Z,1013.5
2018-02-08T06:01:02.305Z,1013.4
2018-02-08T06:02:04.993Z,1013.4
2018-02-08T06:03:07.695Z,1013.4
2018-02-08T06:04:10.108Z,1013.5
2018-02-08T06:05:12.527Z,1013.5
2018-02-08T06:06:14.939Z,1013.4
2018-02-08T06:07:17.359Z,1013.5
2018-02-08T06:08:19.774Z,1013.5
2018-02-08T06:09:22.215Z,1013.4
2018-02-08T06:10:24.888Z,1013.5
2018-02-08T06:11:27.300Z,1013.4
2018-02-08T06:12:29.711Z,1013.5
2018-02-08T06:13:32.125Z,1013.4
2018-02-08T06:14:34.546Z,1013.5
2018-02-08T06:15:36.961Z,1013.5
2018-02-08T06:16:39.371Z,1013.5
2018-02-08T06:17:41.785Z,1013.5
2018-02-08T06:18:44.195Z,1013.5
2018-02-08T06:19:46.614Z,1013.5
2018-02-08T06:20:49.034Z,1013.6
2018-02-08T06:21:51.441Z,1013.5
2018-02-08T06:22:53.847Z,1013.5
2018-02-08T06:23:56.259Z,1013.5
2018-02-08T06:24:58.677Z,1013.5
2018-02-08T06:26:01.084Z,1013.6
2018-02-08T06:27:03.489Z,1013.5
2018-02-08T06:28:05.901Z,1013.5
2018-02-08T06:29:08.318Z,1013.6
2018-02-08T06:30:10.730Z,1013.5
2018-02-08T06:31:13.145Z,1013.6
2018-02-08T06:32:15.554Z,1013.5
2018-02-08T06:33:17.971Z,1013.6
2018-02-08T06:34:20.385Z,1013.6
2018-02-08T06:35:22.813Z,1013.6
2018-02-08T06:36:25.224Z,1013.6
2018-02-08T06:37:27.632Z,1013.6
2018-02-08T06:38:30.049Z,1013.6
2018-02-08T06:39:32.462Z,1013.6
2018-02-08T06:40:34.870Z,1013.6
2018-02-08T06:41:37.282Z,1013.6
2018-02-08T06:42:39.700Z,1013.6
2018-02-08T06:43:42.125Z,1013.6
2018-02-08T06:44:44.546Z,1013.6
2018-02-08T06:45:46.955Z,1013.6
2018-02-08T06:46:49.377Z,1013.6
2018-02-08T06:47:51.781Z,1013.6
2018-02-08T06:48:54.196Z,1013.6
2018-02-08T06:49:56.906Z,1013.6
2018-02-08T06:50:59.315Z,1013.6
2018-02-08T06:52:01.730Z,1013.6
2018-02-08T06:53:04.438Z,1013.6
2018-02-08T06:54:07.422Z,1013.7
2018-02-08T06:55:09.834Z,1013.6
2018-02-08T06:56:12.828Z,1013.7
2018-02-08T06:57:15.239Z,1013.7
2018-02-08T06:58:17.667Z,1013.7
2018-02-08T06:59:20.080Z,1013.8
2018-02-08T07:00:22.495Z,1013.7
2018-02-08T07:01:25.482Z,1013.7
2018-02-08T07:02:27.891Z,1013.7
2018-02-08T07:03:30.310Z,1013.8
2018-02-08T07:04:32.721Z,1013.8
2018-02-08T07:05:35.127Z,1013.8
2018-02-08T07:06:37.541Z,1013.8
2018-02-08T07:07:40.243Z,1013.8
2018-02-08T07:08:42.649Z,1013.8
2018-02-08T07:09:45.057Z,1013.8
2018-02-08T07:10:47.466Z,1013.8
2018-02-08T07:11:49.891Z,1013.8
2018-02-08T07:12:52.297Z,1013.8
2018-02-08T07:13:55.008Z,1013.9
2018-02-08T07:14:57.418Z,1013.8
2018-02-08T07:15:59.834Z,1013.9
2018-02-08T07:17:02.244Z,1013.9
2018-02-08T07:18:04.663Z,1013.9
2018-02-08T07:19:07.065Z,1013.9
2018-02-08T07:20:09.479Z,1013.9
2018-02-08T07:21:11.900Z,1013.9
2018-02-08T07:22:14.311Z,1014
2018-02-08T07:23:16.726Z,1013.9
2018-02-08T07:24:19.140Z,1013.9
2018-02-08T07:25:21.544Z,1013.9
2018-02-08T07:26:23.964Z,1013.9
2018-02-08T07:27:26.378Z,1014
2018-02-08T07:28:29.081Z,1014
2018-02-08T07:29:31.497Z,1014
2018-02-08T07:30:33.917Z,1014
2018-02-08T07:31:36.327Z,1014
2018-02-08T07:32:39.041Z,1014
2018-02-08T07:33:41.439Z,1014
2018-02-08T07:34:43.855Z,1013.9
2018-02-08T07:35:46.269Z,1013.9
2018-02-08T07:36:48.970Z,1013.9
2018-02-08T07:37:51.386Z,1013.9
2018-02-08T07:38:53.799Z,1013.9
2018-02-08T07:39:56.215Z,1013.9
2018-02-08T07:40:58.634Z,1014
2018-02-08T07:42:01.044Z,1013.9
2018-02-08T07:43:03.766Z,1014
2018-02-08T07:44:06.167Z,1013.9
2018-02-08T07:45:08.592Z,1013.9
2018-02-08T07:46:11.008Z,1013.9
2018-02-08T07:47:13.425Z,1013.9
2018-02-08T07:48:15.848Z,1013.9
2018-02-08T07:49:18.562Z,1013.8
2018-02-08T07:50:20.979Z,1013.9
2018-02-08T07:51:23.398Z,1013.8
2018-02-08T07:52:25.810Z,1013.9
2018-02-08T07:53:28.231Z,1013.9
2018-02-08T07:54:30.946Z,1013.9
2018-02-08T07:55:33.365Z,1013.9
2018-02-08T07:56:35.792Z,1013.9
2018-02-08T07:57:38.835Z,1013.9
2018-02-08T07:58:41.246Z,1013.9
2018-02-08T07:59:43.673Z,1013.9
2018-02-08T08:00:46.091Z,1013.9
2018-02-08T08:01:48.512Z,1013.9
2018-02-08T08:02:50.939Z,1013.9
2018-02-08T08:03:53.686Z,1013.9
2018-02-08T08:04:56.087Z,1014
2018-02-08T08:05:58.515Z,1013.9
2018-02-08T08:07:00.948Z,1013.9
2018-02-08T08:08:03.948Z,1014
2018-02-08T08:09:06.360Z,1014
2018-02-08T08:10:08.782Z,1013.9
2018-02-08T08:11:11.197Z,1013.9
2018-02-08T08:12:13.620Z,1013.9
2018-02-08T08:13:16.037Z,1013.9
2018-02-08T08:14:18.743Z,1013.9
2018-02-08T08:15:21.444Z,1013.9
2018-02-08T08:16:24.172Z,1014
2018-02-08T08:17:26.600Z,1013.9
2018-02-08T08:18:29.019Z,1013.9
2018-02-08T08:19:31.734Z,1013.9
2018-02-08T08:20:34.442Z,1013.9
2018-02-08T08:21:36.880Z,1013.9
2018-02-08T08:22:39.308Z,1013.9
2018-02-08T08:23:41.723Z,1013.9
2018-02-08T08:24:44.150Z,1013.9
2018-02-08T08:25:46.581Z,1013.9
2018-02-08T08:26:49.005Z,1014
2018-02-08T08:27:51.722Z,1013.9
2018-02-08T08:28:54.144Z,1013.9
2018-02-08T08:29:56.563Z,1013.9
2018-02-08T08:30:59.009Z,1013.9
2018-02-08T08:32:01.437Z,1013.8
2018-02-08T08:33:04.134Z,1013.8
2018-02-08T08:34:06.567Z,1013.8
2018-02-08T08:35:08.996Z,1013.8
2018-02-08T08:36:11.422Z,1013.8
2018-02-08T08:37:13.849Z,1013.8
2018-02-08T08:38:16.560Z,1013.8
2018-02-08T08:39:18.979Z,1013.8
2018-02-08T08:40:21.401Z,1013.8
2018-02-08T08:41:23.820Z,1013.8
2018-02-08T08:42:26.246Z,1013.8
2018-02-08T08:43:28.676Z,1013.8
2018-02-08T08:44:31.135Z,1013.8
2018-02-08T08:45:33.530Z,1013.8
2018-02-08T08:46:35.965Z,1013.8
2018-02-08T08:47:38.393Z,1013.8
2018-02-08T08:48:40.828Z,1013.8
2018-02-08T08:49:43.252Z,1013.9
2018-02-08T08:50:45.691Z,1013.9
2018-02-08T08:51:48.115Z,1013.9
2018-02-08T08:52:50.545Z,1013.9
2018-02-08T08:53:52.976Z,1013.9
2018-02-08T08:54:55.405Z,1013.9
2018-02-08T08:55:57.828Z,1013.9
2018-02-08T08:57:00.258Z,1013.9
2018-02-08T08:58:02.951Z,1013.9
2018-02-08T08:59:05.394Z,1013.9
2018-02-08T09:00:07.825Z,1014
2018-02-08T09:01:10.254Z,1014
2018-02-08T09:02:12.682Z,1014
2018-02-08T09:03:15.117Z,1014
2018-02-08T09:04:17.551Z,1013.9
2018-02-08T09:05:19.977Z,1014
2018-02-08T09:06:22.420Z,1014
2018-02-08T09:07:24.845Z,1014
2018-02-08T09:08:27.281Z,1014
2018-02-08T09:09:29.722Z,1014
2018-02-08T09:10:32.443Z,1013.9
2018-02-08T09:11:34.876Z,1014
2018-02-08T09:12:37.310Z,1013.9
2018-02-08T09:13:40.017Z,1013.8
2018-02-08T09:14:42.454Z,1013.9
2018-02-08T09:15:44.893Z,1013.9
2018-02-08T09:16:47.320Z,1013.9
2018-02-08T09:17:49.752Z,1013.9
2018-02-08T09:18:52.180Z,1013.9
2018-02-08T09:19:54.603Z,1013.9
2018-02-08T09:20:57.323Z,1013.9
2018-02-08T09:21:59.755Z,1013.9
2018-02-08T09:23:02.455Z,1014
2018-02-08T09:24:04.876Z,1013.9
2018-02-08T09:25:07.313Z,1014
2018-02-08T09:26:09.745Z,1014
2018-02-08T09:27:12.173Z,1013.9
2018-02-08T09:28:14.605Z,1014
2018-02-08T09:29:17.037Z,1014
2018-02-08T09:30:19.479Z,1014
2018-02-08T09:31:22.203Z,1014
2018-02-08T09:32:25.196Z,1014
2018-02-08T09:33:27.627Z,1014
2018-02-08T09:34:30.336Z,1014
2018-02-08T09:35:33.058Z,1014
2018-02-08T09:36:35.478Z,1014
2018-02-08T09:37:37.928Z,1014
2018-02-08T09:38:40.359Z,1014
2018-02-08T09:39:43.072Z,1014
2018-02-08T09:40:45.799Z,1014
2018-02-08T09:41:48.223Z,1014
2018-02-08T09:42:50.658Z,1014
2018-02-08T09:43:53.102Z,1014
2018-02-08T09:44:55.520Z,1014
2018-02-08T09:45:57.951Z,1014
2018-02-08T09:47:00.394Z,1014
2018-02-08T09:48:02.826Z,1014
2018-02-08T09:49:05.251Z,1014
2018-02-08T09:50:07.689Z,1014
2018-02-08T09:51:10.122Z,1014
2018-02-08T09:52:12.560Z,1014
2018-02-08T09:53:14.980Z,1014
2018-02-08T09:54:17.409Z,1014
2018-02-08T09:55:19.843Z,1014
2018-02-08T09:56:22.289Z,1014
2018-02-08T09:57:24.720Z,1014
2018-02-08T09:58:27.153Z,1014
2018-02-08T09:59:29.585Z,1014
2018-02-08T10:00:32.317Z,1014
2018-02-08T10:01:34.749Z,1014
2018-02-08T10:02:37.185Z,1014
2018-02-08T10:03:39.888Z,1014
2018-02-08T10:04:42.323Z,1014
2018-02-08T10:05:44.764Z,1014
2018-02-08T10:06:47.193Z,1014
2018-02-08T10:07:49.920Z,1014
2018-02-08T10:08:52.356Z,1014
2018-02-08T10:09:54.855Z,1014
2018-02-08T10:10:57.217Z,1014
2018-02-08T10:11:59.670Z,1014
2018-02-08T10:13:02.102Z,1014
2018-02-08T10:14:04.529Z,1014
2018-02-08T10:15:06.963Z,1014
2018-02-08T10:16:09.392Z,1014
2018-02-08T10:17:11.818Z,1014
2018-02-08T10:18:14.263Z,1014
2018-02-08T10:19:16.685Z,1014
2018-02-08T10:20:19.415Z,1013.9
2018-02-08T10:21:21.837Z,1014
2018-02-08T10:22:24.273Z,1014
2018-02-08T10:23:27.000Z,1014
2018-02-08T10:24:29.443Z,1014
2018-02-08T10:25:31.870Z,1013.9
2018-02-08T10:26:34.309Z,1013.9
2018-02-08T10:27:36.746Z,1014
2018-02-08T10:28:39.484Z,1014
2018-02-08T10:29:41.920Z,1013.9
2018-02-08T10:30:44.649Z,1014
2018-02-08T10:31:47.469Z,1014
2018-02-08T10:32:49.909Z,1014
2018-02-08T10:33:52.335Z,1014
2018-02-08T10:34:54.784Z,1014
2018-02-08T10:35:57.508Z,1014
2018-02-08T10:36:59.932Z,1014
2018-02-08T10:38:02.373Z,1014
2018-02-08T10:39:04.812Z,1014
2018-02-08T10:40:07.246Z,1014
2018-02-08T10:41:09.680Z,1014
2018-02-08T10:42:12.102Z,1014
2018-02-08T10:43:14.529Z,1014
2018-02-08T10:44:16.982Z,1014
2018-02-08T10:45:19.705Z,1014
2018-02-08T10:46:22.123Z,1014
2018-02-08T10:47:24.561Z,1014
2018-02-08T10:48:26.999Z,1014
2018-02-08T10:49:29.444Z,1014
2018-02-08T10:50:32.173Z,1014
2018-02-08T10:51:34.608Z,1014
2018-02-08T10:52:37.045Z,1014
2018-02-08T10:53:39.488Z,1014
2018-02-08T10:54:41.927Z,1014
2018-02-08T10:55:44.357Z,1014
2018-02-08T10:56:46.792Z,1014
2018-02-08T10:57:49.503Z,1014
2018-02-08T10:58:51.945Z,1014
2018-02-08T10:59:54.377Z,1014
2018-02-08T11:00:56.810Z,1014
2018-02-08T11:01:59.540Z,1013.9
2018-02-08T11:03:01.970Z,1014
2018-02-08T11:04:04.414Z,1014
2018-02-08T11:05:06.850Z,1013.9
2018-02-08T11:06:09.286Z,1013.9
2018-02-08T11:07:11.730Z,1014
2018-02-08T11:08:14.156Z,1014
2018-02-08T11:09:16.589Z,1014
2018-02-08T11:10:19.021Z,1014
2018-02-08T11:11:21.447Z,1014
2018-02-08T11:12:23.884Z,1013.9
2018-02-08T11:13:26.601Z,1013.9
2018-02-08T11:14:29.043Z,1013.9
2018-02-08T11:15:31.481Z,1013.9
2018-02-08T11:16:33.923Z,1013.9
2018-02-08T11:17:36.660Z,1013.9
2018-02-08T11:18:39.115Z,1013.9
2018-02-08T11:19:41.553Z,1014
2018-02-08T11:20:43.967Z,1013.9
2018-02-08T11:21:46.702Z,1013.9
2018-02-08T11:22:49.132Z,1013.9
2018-02-08T11:23:51.572Z,1013.9
2018-02-08T11:24:54.006Z,1013.9
2018-02-08T11:25:56.438Z,1014
2018-02-08T11:26:58.878Z,1013.9
2018-02-08T11:28:01.315Z,1014
2018-02-08T11:29:03.742Z,1013.9
2018-02-08T11:30:06.181Z,1014
2018-02-08T11:31:08.628Z,1013.9
2018-02-08T11:32:11.055Z,1013.9
2018-02-08T11:33:13.772Z,1013.9
2018-02-08T11:34:16.222Z,1013.9
2018-02-08T11:35:18.650Z,1013.9
2018-02-08T11:36:21.088Z,1013.9
2018-02-08T11:37:23.518Z,1013.9
2018-02-08T11:38:25.956Z,1013.9
2018-02-08T11:39:28.386Z,1013.8
2018-02-08T11:40:30.823Z,1013.9
2018-02-08T11:41:33.537Z,1013.8
2018-02-08T11:42:36.284Z,1013.9
2018-02-08T11:43:38.726Z,1013.9
2018-02-08T11:44:41.168Z,1013.9
2018-02-08T11:45:43.604Z,1013.9
2018-02-08T11:46:46.045Z,1013.9
2018-02-08T11:47:48.529Z,1013.9
2018-02-08T11:48:50.969Z,1013.9
2018-02-08T11:49:53.403Z,1013.9
2018-02-08T11:50:55.844Z,1013.9
2018-02-08T11:51:58.842Z,1013.9
2018-02-08T11:53:01.289Z,1013.9
2018-02-08T11:54:03.725Z,1013.8
2018-02-08T11:55:06.151Z,1013.9
2018-02-08T11:56:08.588Z,1013.9
2018-02-08T11:57:11.329Z,1013.9
2018-02-08T11:58:13.772Z,1013.9
2018-02-08T11:59:16.215Z,1013.9
2018-02-08T12:00:18.676Z,1013.9
2018-02-08T12:01:21.115Z,1013.9
2018-02-08T12:02:23.566Z,1013.9
2018-02-08T12:03:26.002Z,1013.9
2018-02-08T12:04:28.436Z,1013.9
2018-02-08T12:05:30.868Z,1013.9
2018-02-08T12:06:33.333Z,1013.9
2018-02-08T12:07:35.730Z,1013.9
2018-02-08T12:08:38.165Z,1013.9
2018-02-08T12:09:40.610Z,1013.8
2018-02-08T12:10:43.050Z,1013.9
2018-02-08T12:11:45.491Z,1013.9
2018-02-08T12:12:47.933Z,1013.8
2018-02-08T12:13:50.373Z,1013.8
2018-02-08T12:14:52.816Z,1013.7
2018-02-08T12:15:55.262Z,1013.7
2018-02-08T12:16:57.684Z,1013.8
2018-02-08T12:18:00.133Z,1013.7
2018-02-08T12:19:02.574Z,1013.8
2018-02-08T12:20:05.294Z,1013.7
2018-02-08T12:21:07.733Z,1013.7
2018-02-08T12:22:10.174Z,1013.7
2018-02-08T12:23:12.613Z,1013.7
2018-02-08T12:24:15.056Z,1013.6
2018-02-08T12:25:17.779Z,1013.6
2018-02-08T12:26:20.216Z,1013.6
2018-02-08T12:27:22.666Z,1013.6
2018-02-08T12:28:25.099Z,1013.5
2018-02-08T12:29:27.538Z,1013.5
2018-02-08T12:30:29.980Z,1013.5
2018-02-08T12:31:32.410Z,1013.5
2018-02-08T12:32:34.847Z,1013.5
2018-02-08T12:33:37.272Z,1013.5
2018-02-08T12:34:39.992Z,1013.5
2018-02-08T12:35:42.435Z,1013.5
2018-02-08T12:36:44.886Z,1013.5
2018-02-08T12:37:47.322Z,1013.5
2018-02-08T12:38:49.762Z,1013.5
2018-02-08T12:39:52.195Z,1013.5
2018-02-08T12:40:54.638Z,1013.5
2018-02-08T12:41:57.070Z,1013.4
2018-02-08T12:42:59.516Z,1013.5
2018-02-08T12:44:01.945Z,1013.4
2018-02-08T12:45:04.391Z,1013.4
2018-02-08T12:46:06.830Z,1013.5
2018-02-08T12:47:09.275Z,1013.4
2018-02-08T12:48:11.701Z,1013.4
2018-02-08T12:49:14.146Z,1013.4
2018-02-08T12:50:16.612Z,1013.4
2018-02-08T12:51:19.020Z,1013.4
2018-02-08T12:52:21.454Z,1013.4
2018-02-08T12:53:23.895Z,1013.4
2018-02-08T12:54:26.335Z,1013.4
2018-02-08T12:55:28.783Z,1013.3
2018-02-08T12:56:31.223Z,1013.4
2018-02-08T12:57:33.659Z,1013.3
2018-02-08T12:58:36.092Z,1013.4
2018-02-08T12:59:38.539Z,1013.3
2018-02-08T13:00:40.972Z,1013.2
2018-02-08T13:01:43.416Z,1013.2
2018-02-08T13:02:45.854Z,1013.2
2018-02-08T13:03:48.290Z,1013.2
2018-02-08T13:04:50.740Z,1013.2
2018-02-08T13:05:53.187Z,1013.1
2018-02-08T13:06:55.625Z,1013.2
2018-02-08T13:07:58.376Z,1013.1
2018-02-08T13:09:00.799Z,1013.1
2018-02-08T13:10:03.242Z,1013.1